Time;durP1;ratioP1;P1;durP2;ratioP2;P2;SDS_P1;SDS_P2;PMS_P1;PMS_P2;Temp;Humidity;BMP_temperature;BMP_pressure;BME280_temperature;BME280_humidity;BME280_pressure;Samples;Min_cycle;Max_cycle;Signal;HPM_P1;HPM_P2
2022/03/12 00:00:48;;;;;;;14.55;7.32;;;9.80;82.40;;;;;;5036228;28;20037;-74
2022/03/12 00:03:15;;;;;;;17.63;6.90;;;9.80;83.40;;;;;;5059541;28;20470;-74
2022/03/12 00:05:48;;;;;;;;;;;9.70;82.30;;;;;;5054207;28;20120;-74
2022/03/12 00:08:15;;;;;;;12.70;6.90;;;9.80;82.10;;;;;;5041341;28;19920;-74
2022/03/12 00:10:43;;;;;;;17.92;8.05;;;9.90;82.40;;;;;;5054280;28;20729;-73
2022/03/12 00:13:09;;;;;;;15.40;6.82;;;9.80;83.60;;;;;;5053912;28;20021;-74
2022/03/12 00:15:35;;;;;;;19.15;8.88;;;9.80;82.50;;;;;;5037602;28;20029;-74
2022/03/12 00:18:01;;;;;;;18.83;7.97;;;9.80;84.70;;;;;;5057046;28;20029;-73
2022/03/12 00:20:28;;;;;;;21.00;7.70;;;9.70;83.90;;;;;;5051109;28;20029;-74
2022/03/12 00:22:56;;;;;;;15.85;7.57;;;9.70;83.90;;;;;;5021561;28;20324;-80
2022/03/12 00:25:24;;;;;;;17.33;8.00;;;9.70;83.90;;;;;;5061867;28;20037;-74
2022/03/12 00:27:50;;;;;;;17.38;8.07;;;9.70;83.70;;;;;;5063500;28;20021;-74
2022/03/12 00:30:19;;;;;;;15.27;7.30;;;9.80;84.70;;;;;;5056606;28;20036;-74
2022/03/12 00:32:48;;;;;;;18.33;7.05;;;9.70;84.00;;;;;;5039109;28;20102;-74
2022/03/12 00:35:15;;;;;;;19.17;7.95;;;9.70;86.70;;;;;;5056218;28;20049;-74
2022/03/12 00:37:41;;;;;;;17.38;8.05;;;9.70;85.10;;;;;;5041352;28;20481;-74
2022/03/12 00:40:08;;;;;;;17.00;7.13;;;9.70;85.60;;;;;;5059707;28;20045;-75
2022/03/12 00:42:34;;;;;;;;;;;9.60;86.30;;;;;;5057453;28;20110;-74
2022/03/12 00:45:00;;;;;;;18.67;7.77;;;9.60;85.60;;;;;;5056876;28;20291;-73
2022/03/12 00:47:26;;;;;;;18.20;8.43;;;9.60;86.50;;;;;;5046836;28;20040;-74
2022/03/12 00:49:53;;;;;;;19.92;7.35;;;9.60;87.20;;;;;;5044790;28;20028;-74
2022/03/12 00:52:19;;;;;;;;;;;9.60;85.90;;;;;;5058410;28;20040;-74
2022/03/12 00:54:45;;;;;;;20.40;7.97;;;9.60;87.50;;;;;;5038942;28;19916;-73
2022/03/12 00:57:12;;;;;;;15.32;7.03;;;9.60;86.10;;;;;;5056450;28;20350;-74
2022/03/12 00:59:39;;;;;;;17.85;8.30;;;9.60;88.20;;;;;;5039401;28;20067;-73
2022/03/12 01:02:05;;;;;;;14.63;7.78;;;9.60;87.40;;;;;;5056157;28;20040;-81
2022/03/12 01:04:31;;;;;;;12.55;6.50;;;9.60;88.20;;;;;;5057336;28;20033;-79
2022/03/12 01:06:57;;;;;;;18.97;9.47;;;9.70;88.60;;;;;;5062797;28;20081;-73
2022/03/12 01:09:23;;;;;;;18.07;8.17;;;9.60;90.00;;;;;;5066142;28;20032;-74
2022/03/12 01:11:48;;;;;;;14.73;7.80;;;9.60;89.50;;;;;;5054583;28;20118;-73
2022/03/12 01:14:15;;;;;;;16.20;7.80;;;9.60;89.70;;;;;;5046605;28;20047;-82
2022/03/12 01:16:42;;;;;;;17.20;7.50;;;9.50;90.20;;;;;;5050629;28;20119;-74
2022/03/12 01:19:08;;;;;;;21.70;8.60;;;9.50;90.00;;;;;;5056287;28;20033;-73
2022/03/12 01:21:34;;;;;;;19.43;8.63;;;9.50;90.50;;;;;;5056138;28;20077;-73
2022/03/12 01:24:00;;;;;;;16.87;8.77;;;9.50;90.90;;;;;;5055429;28;20075;-74
2022/03/12 01:26:26;;;;;;;19.73;9.40;;;9.50;90.60;;;;;;5038206;28;20052;-73
2022/03/12 01:28:52;;;;;;;18.27;8.35;;;9.50;91.10;;;;;;5055814;28;20021;-74
2022/03/12 01:31:18;;;;;;;16.25;7.95;;;9.50;91.10;;;;;;5055732;28;20049;-74
2022/03/12 01:33:45;;;;;;;18.42;8.05;;;9.50;90.40;;;;;;5055143;28;20035;-74
2022/03/12 01:36:10;;;;;;;18.50;7.97;;;9.50;91.20;;;;;;5056062;28;20044;-73
2022/03/12 01:38:47;;;;;;;16.73;8.90;;;9.50;91.00;;;;;;5053931;28;20049;-74
2022/03/12 01:41:14;;;;;;;17.52;8.88;;;9.50;90.90;;;;;;5058759;28;20027;-74
2022/03/12 01:43:43;;;;;;;20.50;8.82;;;9.40;92.50;;;;;;5022134;28;21663;-74
2022/03/12 01:46:10;;;;;;;16.45;9.00;;;9.30;93.00;;;;;;5037559;28;20107;-74
2022/03/12 01:48:48;;;;;;;22.90;9.68;;;9.20;94.10;;;;;;5037640;28;20335;-73
2022/03/12 01:51:15;;;;;;;13.98;8.65;;;9.10;94.90;;;;;;5032371;28;20025;-73
2022/03/12 01:53:41;;;;;;;23.00;9.77;;;8.90;95.70;;;;;;5036351;28;20033;-85
2022/03/12 01:56:07;;;;;;;19.43;9.47;;;8.90;95.80;;;;;;5051385;28;20029;-73
2022/03/12 01:58:35;;;;;;;18.67;9.50;;;8.80;96.30;;;;;;5053508;28;20433;-74
2022/03/12 02:01:02;;;;;;;14.30;8.07;;;8.80;97.20;;;;;;5043645;28;20064;-72
2022/03/12 02:03:29;;;;;;;16.70;8.98;;;8.60;97.30;;;;;;5032786;28;20021;-73
2022/03/12 02:05:55;;;;;;;18.42;9.95;;;8.60;98.30;;;;;;5053137;28;20120;-73
2022/03/12 02:08:21;;;;;;;19.85;10.57;;;8.50;99.60;;;;;;5052999;28;20024;-73
2022/03/12 02:10:59;;;;;;;29.90;11.23;;;8.40;99.90;;;;;;5037557;28;20025;-73
2022/03/12 02:13:26;;;;;;;18.73;9.70;;;8.30;99.90;;;;;;5055061;28;20108;-73
2022/03/12 02:16:08;;;;;;;22.23;10.40;;;8.30;99.90;;;;;;5058356;28;20029;-73
2022/03/12 02:18:34;;;;;;;20.58;9.75;;;8.30;99.90;;;;;;5036596;28;20068;-73
2022/03/12 02:21:00;;;;;;;20.40;9.05;;;8.30;99.90;;;;;;5053489;28;20037;-73
2022/03/12 02:23:26;;;;;;;17.13;9.25;;;8.30;99.90;;;;;;5055402;28;20036;-73
2022/03/12 02:25:52;;;;;;;17.50;9.65;;;8.30;99.90;;;;;;5037234;28;20029;-74
2022/03/12 02:28:19;;;;;;;21.30;9.10;;;8.20;99.90;;;;;;5031393;28;21605;-73
2022/03/12 02:30:51;;;;;;;18.30;9.52;;;8.20;99.90;;;;;;5054714;28;20063;-74
2022/03/12 02:33:24;;;;;;;17.50;8.88;;;8.20;99.90;;;;;;5037295;28;20075;-74
2022/03/12 02:35:53;;;;;;;18.10;9.23;;;8.10;99.90;;;;;;5058731;28;20112;-73
2022/03/12 02:38:21;;;;;;;19.60;8.88;;;8.10;99.90;;;;;;5054407;28;20040;-73
2022/03/12 02:40:50;;;;;;;19.95;8.57;;;8.10;99.90;;;;;;5055213;28;20029;-73
2022/03/12 02:43:24;;;;;;;19.88;9.95;;;8.10;99.90;;;;;;5059085;28;20024;-73
2022/03/12 02:45:51;;;;;;;19.67;9.35;;;8.10;99.90;;;;;;5048707;28;20048;-73
2022/03/12 02:48:18;;;;;;;21.52;10.18;;;8.10;99.90;;;;;;5054924;28;20044;-73
2022/03/12 02:50:44;;;;;;;;;;;8.10;99.90;;;;;;5037002;28;20033;-73
2022/03/12 02:53:10;;;;;;;23.80;9.27;;;8.10;99.90;;;;;;5055133;28;19953;-74
2022/03/12 02:55:41;;;;;;;18.93;8.47;;;8.20;99.90;;;;;;5036832;28;20342;-73
2022/03/12 02:58:09;;;;;;;20.02;9.70;;;8.20;99.90;;;;;;5053640;28;20289;-73
2022/03/12 03:00:38;;;;;;;19.67;9.05;;;8.30;99.90;;;;;;5054590;28;20033;-79
2022/03/12 03:03:06;;;;;;;16.38;9.15;;;8.30;99.90;;;;;;5053478;28;20031;-73
2022/03/12 03:05:47;;;;;;;17.88;8.93;;;8.30;99.90;;;;;;5050205;28;20301;-73
2022/03/12 03:08:20;;;;;;;24.90;8.98;;;8.30;99.90;;;;;;5055954;28;20104;-74
2022/03/12 03:10:51;;;;;;;20.10;10.40;;;8.40;99.90;;;;;;5053946;28;20031;-73
2022/03/12 03:13:17;;;;;;;18.90;8.20;;;8.40;99.90;;;;;;5051984;28;20087;-85
2022/03/12 03:15:46;;;;;;;16.90;9.10;;;8.40;99.90;;;;;;5053721;28;20368;-73
2022/03/12 03:18:13;;;;;;;23.55;9.95;;;8.40;99.90;;;;;;5052651;28;20033;-73
2022/03/12 03:20:40;;;;;;;18.33;9.43;;;8.40;99.90;;;;;;5051172;28;20478;-73
2022/03/12 03:23:08;;;;;;;17.23;8.93;;;8.40;99.90;;;;;;5035265;28;20740;-74
2022/03/12 03:25:35;;;;;;;16.88;8.52;;;8.40;99.90;;;;;;5035567;28;20163;-74
2022/03/12 03:28:01;;;;;;;15.85;9.57;;;8.40;99.90;;;;;;5049972;28;20025;-73
2022/03/12 03:30:34;;;;;;;21.53;9.97;;;8.40;99.90;;;;;;5051641;28;20040;-74
2022/03/12 03:33:01;;;;;;;15.63;7.15;;;8.50;99.90;;;;;;5054329;28;20341;-73
2022/03/12 03:35:27;;;;;;;;;;;8.50;99.90;;;;;;5036698;28;20025;-74
2022/03/12 03:37:53;;;;;;;25.17;9.63;;;8.50;99.90;;;;;;5054090;28;20022;-74
2022/03/12 03:40:18;;;;;;;20.33;10.03;;;8.60;99.90;;;;;;5036418;28;20071;-74
2022/03/12 03:42:44;;;;;;;22.33;9.20;;;8.60;99.90;;;;;;5036250;28;20040;-73
2022/03/12 03:45:10;;;;;;;19.97;9.07;;;8.60;99.90;;;;;;5054356;28;20033;-73
2022/03/12 03:47:36;;;;;;;20.33;9.63;;;8.60;99.90;;;;;;5053807;28;20475;-74
2022/03/12 03:50:02;;;;;;;17.95;9.15;;;8.50;99.90;;;;;;5036386;28;20029;-74
2022/03/12 03:52:28;;;;;;;22.27;8.57;;;8.50;99.90;;;;;;5036451;28;20037;-73
2022/03/12 03:54:54;;;;;;;14.90;8.67;;;8.50;99.90;;;;;;5054233;28;20306;-86
2022/03/12 03:57:21;;;;;;;18.42;9.07;;;8.50;99.90;;;;;;5063307;28;20332;-74
2022/03/12 03:59:46;;;;;;;17.48;8.95;;;8.40;99.90;;;;;;5060153;28;20159;-73
2022/03/12 04:02:12;;;;;;;18.33;9.90;;;8.50;99.90;;;;;;5053692;28;20100;-73
2022/03/12 04:04:38;;;;;;;20.57;9.23;;;8.40;99.90;;;;;;5054017;28;20029;-74
2022/03/12 04:07:05;;;;;;;21.63;9.87;;;8.40;99.90;;;;;;5035639;28;20226;-73
2022/03/12 04:09:31;;;;;;;20.40;9.23;;;8.30;99.90;;;;;;5055296;28;20029;-74
2022/03/12 04:11:57;;;;;;;20.88;9.77;;;8.30;99.90;;;;;;5056864;28;20098;-74
2022/03/12 04:14:25;;;;;;;20.60;8.57;;;8.20;99.90;;;;;;5057381;28;20076;-74
2022/03/12 04:16:51;;;;;;;15.82;8.48;;;8.20;99.90;;;;;;5039552;28;20040;-73
2022/03/12 04:19:18;;;;;;;24.20;10.10;;;8.10;99.90;;;;;;5057170;28;20037;-73
2022/03/12 04:21:44;;;;;;;17.95;9.60;;;8.10;99.90;;;;;;5039351;28;20025;-73
2022/03/12 04:24:10;;;;;;;18.80;9.00;;;8.00;99.90;;;;;;5057482;28;20457;-73
2022/03/12 04:26:37;;;;;;;21.77;10.20;;;7.90;99.90;;;;;;5056679;28;20087;-73
2022/03/12 04:29:08;;;;;;;18.80;8.88;;;7.90;99.90;;;;;;5056331;28;20473;-87
2022/03/12 04:31:35;;;;;;;18.83;10.07;;;7.90;99.90;;;;;;5056761;28;20040;-73
2022/03/12 04:34:01;;;;;;;16.92;9.50;;;7.80;99.90;;;;;;5057074;28;20037;-73
2022/03/12 04:36:27;;;;;;;25.85;10.00;;;7.80;99.90;;;;;;5039007;28;20035;-85
2022/03/12 04:38:52;;;;;;;17.00;8.93;;;7.70;99.90;;;;;;5056361;28;20043;-73
2022/03/12 04:41:19;;;;;;;16.83;8.60;;;7.70;99.90;;;;;;5039151;28;20151;-72
2022/03/12 04:43:45;;;;;;;16.13;8.55;;;7.70;99.90;;;;;;5056976;28;20028;-72
2022/03/12 04:46:11;;;;;;;17.10;9.27;;;7.60;99.90;;;;;;5056763;28;20036;-73
2022/03/12 04:48:36;;;;;;;18.67;9.40;;;7.60;99.90;;;;;;5038874;28;20025;-73
2022/03/12 04:51:02;;;;;;;19.07;9.27;;;7.60;99.90;;;;;;5056912;28;20394;-73
2022/03/12 04:53:28;;;;;;;20.38;8.63;;;7.60;99.90;;;;;;5038240;28;20031;-72
2022/03/12 04:55:55;;;;;;;16.70;8.88;;;7.50;99.90;;;;;;5059240;28;20091;-74
2022/03/12 04:58:21;;;;;;;15.82;8.75;;;7.40;99.90;;;;;;5039691;28;20043;-73
2022/03/12 05:00:47;;;;;;;19.77;9.57;;;7.40;99.90;;;;;;5056450;28;20041;-73
2022/03/12 05:03:18;;;;;;;17.00;9.10;;;7.40;99.90;;;;;;5056439;28;20024;-85
2022/03/12 05:05:46;;;;;;;22.75;8.18;;;7.40;99.90;;;;;;5056527;28;20037;-73
2022/03/12 05:08:15;;;;;;;14.63;8.43;;;7.40;99.90;;;;;;5056206;28;20032;-73
2022/03/12 05:10:42;;;;;;;14.70;8.40;;;7.40;99.90;;;;;;5055188;28;20102;-74
2022/03/12 05:13:10;;;;;;;16.60;8.57;;;7.50;99.90;;;;;;5055906;28;20029;-73
2022/03/12 05:15:39;;;;;;;15.98;8.38;;;7.50;99.90;;;;;;5055819;28;20138;-73
2022/03/12 05:18:11;;;;;;;22.88;9.10;;;7.60;99.90;;;;;;5063376;28;20363;-81
2022/03/12 05:20:40;;;;;;;21.48;8.82;;;7.60;99.90;;;;;;5055947;28;20039;-73
2022/03/12 05:23:07;;;;;;;19.35;8.40;;;7.60;99.90;;;;;;5056209;28;20044;-73
2022/03/12 05:25:39;;;;;;;18.58;8.60;;;7.60;99.90;;;;;;5056076;28;20446;-86
2022/03/12 05:28:05;;;;;;;17.85;8.98;;;7.60;99.90;;;;;;5038465;28;20032;-73
2022/03/12 05:30:31;;;;;;;15.10;8.23;;;7.60;99.90;;;;;;5056361;28;20438;-73
2022/03/12 05:32:57;;;;;;;16.83;7.72;;;7.50;99.90;;;;;;5054732;28;20033;-83
2022/03/12 05:35:24;;;;;;;16.42;8.65;;;7.50;99.90;;;;;;5055385;28;20033;-73
2022/03/12 05:37:52;;;;;;;19.58;8.00;;;7.50;99.90;;;;;;5055225;28;20028;-73
2022/03/12 05:40:26;;;;;;;15.82;7.68;;;7.50;99.90;;;;;;5056100;28;20051;-73
2022/03/12 05:42:55;;;;;;;17.70;8.25;;;7.50;99.90;;;;;;5055560;28;20029;-73
2022/03/12 05:45:23;;;;;;;16.75;8.77;;;7.50;99.90;;;;;;5038071;28;20064;-73
2022/03/12 05:47:49;;;;;;;16.30;7.97;;;7.50;99.90;;;;;;5055435;28;20028;-73
2022/03/12 05:50:17;;;;;;;16.38;7.88;;;7.50;99.90;;;;;;5055703;28;20029;-73
2022/03/12 05:52:47;;;;;;;11.25;6.80;;;7.40;99.90;;;;;;5038016;28;20048;-73
2022/03/12 05:55:14;;;;;;;13.20;6.82;;;7.40;99.90;;;;;;5021558;28;20094;-73
2022/03/12 05:57:40;;;;;;;;;;;7.40;99.90;;;;;;5056222;28;20033;-73
2022/03/12 06:00:11;;;;;;;14.90;7.10;;;7.50;99.90;;;;;;5055406;28;19966;-72
2022/03/12 06:02:49;;;;;;;12.90;7.03;;;7.50;99.90;;;;;;5050434;28;20659;-73
2022/03/12 06:05:17;;;;;;;14.27;6.93;;;7.50;99.90;;;;;;5055171;28;20360;-73
2022/03/12 06:07:46;;;;;;;18.60;6.93;;;7.50;99.90;;;;;;5049743;28;20025;-73
2022/03/12 06:10:35;;;;;;;14.38;6.80;;;7.40;99.90;;;;;;5056585;28;20315;-73
2022/03/12 06:13:02;;;;;;;11.35;6.32;;;7.40;99.90;;;;;;5051707;28;20025;-73
2022/03/12 06:15:27;;;;;;;15.52;6.85;;;7.40;99.90;;;;;;5054815;28;20320;-73
2022/03/12 06:17:54;;;;;;;15.65;6.65;;;7.50;99.90;;;;;;5055332;28;20040;-73
2022/03/12 06:20:21;;;;;;;14.60;7.18;;;7.60;99.90;;;;;;5036812;28;20502;-73
2022/03/12 06:22:50;;;;;;;11.88;6.57;;;7.60;99.90;;;;;;5037056;28;20098;-73
2022/03/12 06:25:17;;;;;;;11.15;6.35;;;7.60;99.90;;;;;;5054940;28;20060;-74
2022/03/12 06:27:47;;;;;;;16.25;6.95;;;7.60;99.90;;;;;;5054684;28;20028;-73
2022/03/12 06:30:15;;;;;;;12.95;6.50;;;7.70;99.90;;;;;;5054940;28;20077;-73
2022/03/12 06:32:44;;;;;;;18.15;6.90;;;7.70;99.90;;;;;;5053797;28;20526;-87
2022/03/12 06:35:12;;;;;;;11.55;5.93;;;7.70;99.90;;;;;;5040344;28;20025;-72
2022/03/12 06:37:39;;;;;;;19.35;6.55;;;7.80;99.90;;;;;;5055336;28;20036;-73
2022/03/12 06:40:10;;;;;;;15.18;6.53;;;7.80;99.90;;;;;;5035533;28;20067;-73
2022/03/12 06:42:39;;;;;;;13.07;7.43;;;7.90;99.90;;;;;;5054651;28;20412;-74
2022/03/12 06:45:06;;;;;;;15.20;6.15;;;7.90;99.90;;;;;;5054939;28;20025;-73
2022/03/12 06:47:32;;;;;;;10.45;6.53;;;7.90;99.90;;;;;;5054652;28;20017;-73
2022/03/12 06:49:59;;;;;;;13.00;6.82;;;8.00;99.90;;;;;;5054593;28;20044;-74
2022/03/12 06:52:27;;;;;;;17.45;9.32;;;8.10;99.90;;;;;;5054753;28;20078;-72
2022/03/12 06:54:54;;;;;;;17.67;10.00;;;8.10;99.90;;;;;;5036487;28;20116;-73
2022/03/12 06:57:20;;;;;;;19.25;13.63;;;8.20;99.90;;;;;;5020342;28;20036;-74
2022/03/12 06:59:46;;;;;;;26.38;15.88;;;8.30;99.90;;;;;;5062204;28;20111;-73
2022/03/12 07:02:12;;;;;;;12.30;6.07;;;8.50;99.90;;;;;;5035598;28;20116;-74
2022/03/12 07:04:38;;;;;;;18.25;8.18;;;8.60;99.90;;;;;;5053262;28;20029;-73
2022/03/12 07:07:04;;;;;;;16.20;9.40;;;8.70;99.90;;;;;;5053605;28;20052;-73
2022/03/12 07:09:30;;;;;;;13.73;7.07;;;8.80;99.90;;;;;;5036476;28;20029;-73
2022/03/12 07:11:58;;;;;;;24.40;6.88;;;8.80;99.90;;;;;;5005584;28;20497;-73
2022/03/12 07:14:24;;;;;;;10.40;6.35;;;8.80;99.90;;;;;;5059642;28;20120;-73
2022/03/12 07:16:51;;;;;;;10.43;5.63;;;8.80;99.90;;;;;;5053832;28;20032;-72
2022/03/12 07:19:17;;;;;;;11.88;6.40;;;8.80;99.90;;;;;;5054183;28;20317;-73
2022/03/12 07:21:43;;;;;;;10.47;6.10;;;8.90;99.90;;;;;;5052609;28;20036;-87
2022/03/12 07:24:09;;;;;;;9.68;6.00;;;9.00;99.90;;;;;;5051343;28;20021;-73
2022/03/12 07:26:34;;;;;;;13.87;5.40;;;9.00;99.90;;;;;;5050689;28;20049;-72
2022/03/12 07:29:00;;;;;;;11.95;6.72;;;9.20;99.90;;;;;;5050492;28;20067;-73
2022/03/12 07:31:26;;;;;;;14.07;9.80;;;9.50;99.90;;;;;;5035166;28;20427;-75
2022/03/12 07:33:52;;;;;;;9.40;6.13;;;9.70;99.90;;;;;;5053737;28;20070;-73
2022/03/12 07:36:18;;;;;;;9.93;6.13;;;9.90;99.90;;;;;;5052907;28;20037;-73
2022/03/12 07:38:44;;;;;;;12.20;6.93;;;10.10;99.90;;;;;;5052036;28;20076;-73
2022/03/12 07:41:10;;;;;;;10.20;5.13;;;10.30;99.90;;;;;;5045473;28;20037;-73
2022/03/12 07:43:36;;;;;;;8.27;5.80;;;10.50;99.90;;;;;;5054762;28;20264;-73
2022/03/12 07:46:03;;;;;;;11.17;6.27;;;10.60;99.90;;;;;;5021458;28;20025;-73
2022/03/12 07:48:29;;;;;;;11.60;6.15;;;10.70;99.90;;;;;;5054259;28;20261;-74
2022/03/12 07:50:55;;;;;;;14.83;10.90;;;10.70;99.90;;;;;;5056498;28;20672;-73
2022/03/12 07:53:21;;;;;;;11.73;6.18;;;10.80;99.90;;;;;;5052833;28;20029;-74
2022/03/12 07:55:47;;;;;;;16.60;7.83;;;11.00;99.90;;;;;;5058179;28;20044;-74
2022/03/12 07:58:14;;;;;;;12.48;8.35;;;11.00;99.90;;;;;;5061867;28;20446;-74
2022/03/12 08:00:40;;;;;;;16.38;11.02;;;11.10;99.90;;;;;;5057851;28;20114;-74
2022/03/12 08:03:06;;;;;;;13.93;6.78;;;11.00;99.90;;;;;;5057780;28;20085;-74
2022/03/12 08:05:32;;;;;;;16.42;8.80;;;10.90;99.90;;;;;;5057578;28;20408;-90
2022/03/12 08:08:00;;;;;;;12.10;9.23;;;10.80;99.90;;;;;;5057820;28;20027;-74
2022/03/12 08:10:26;;;;;;;10.10;6.15;;;10.80;99.90;;;;;;5043166;28;20120;-73
2022/03/12 08:12:52;;;;;;;7.80;5.03;;;10.90;99.90;;;;;;5057638;28;20072;-73
2022/03/12 08:15:19;;;;;;;9.97;4.83;;;11.10;99.90;;;;;;5057167;28;20368;-74
2022/03/12 08:17:45;;;;;;;11.00;7.15;;;11.10;99.90;;;;;;5057494;28;20056;-74
2022/03/12 08:20:12;;;;;;;9.45;4.20;;;11.30;99.90;;;;;;5052299;28;20440;-73
2022/03/12 08:22:40;;;;;;;8.15;5.07;;;11.40;99.90;;;;;;5056259;28;20033;-86
2022/03/12 08:25:07;;;;;;;9.55;4.80;;;11.40;99.90;;;;;;5056771;28;20790;-74
2022/03/12 08:27:35;;;;;;;9.32;5.15;;;11.50;99.90;;;;;;5022850;28;20044;-74
2022/03/12 08:30:00;;;;;;;10.07;3.90;;;11.50;99.90;;;;;;5056525;28;20029;-73
2022/03/12 08:32:26;;;;;;;7.97;4.43;;;11.70;99.90;;;;;;5057755;28;20036;-75
2022/03/12 08:34:52;;;;;;;9.40;4.75;;;11.90;99.90;;;;;;5057412;28;20029;-73
2022/03/12 08:37:18;;;;;;;13.07;5.57;;;12.30;99.90;;;;;;5039396;28;20021;-73
2022/03/12 08:39:43;;;;;;;12.23;5.37;;;12.60;99.90;;;;;;5040715;28;20049;-89
2022/03/12 08:42:09;;;;;;;8.37;4.97;;;12.90;99.90;;;;;;5045978;28;20053;-89
2022/03/12 08:44:37;;;;;;;11.13;5.53;;;13.10;99.90;;;;;;5057558;28;20033;-90
2022/03/12 08:47:04;;;;;;;7.78;4.60;;;13.20;99.90;;;;;;5056724;28;20075;-74
2022/03/12 08:49:29;;;;;;;;;;;13.60;99.90;;;;;;5039758;28;20120;-74
2022/03/12 08:51:55;;;;;;;10.53;4.70;;;14.00;99.90;;;;;;5035596;28;20027;-83
2022/03/12 08:54:21;;;;;;;15.23;6.83;;;14.20;99.90;;;;;;5042881;28;20032;-73
2022/03/12 08:56:46;;;;;;;17.93;5.50;;;14.10;99.90;;;;;;5043425;28;20037;-73
2022/03/12 08:59:12;;;;;;;8.80;5.07;;;14.40;99.90;;;;;;5035636;28;20503;-89
2022/03/12 09:01:38;;;;;;;19.33;7.57;;;14.30;99.90;;;;;;5047157;28;20033;-74
2022/03/12 09:04:04;;;;;;;15.88;6.50;;;13.90;99.90;;;;;;5047375;28;20096;-87
2022/03/12 09:06:32;;;;;;;14.88;6.10;;;13.90;99.90;;;;;;5019191;28;20408;-74
2022/03/12 09:08:58;;;;;;;13.73;6.35;;;13.80;99.90;;;;;;5046683;28;20040;-75
2022/03/12 09:11:25;;;;;;;20.88;5.90;;;13.60;99.90;;;;;;5047797;28;20036;-88
2022/03/12 09:13:51;;;;;;;10.05;4.40;;;13.40;99.90;;;;;;5043323;28;20124;-90
2022/03/12 09:16:18;;;;;;;13.98;4.97;;;13.60;99.90;;;;;;5048503;28;20064;-74
2022/03/12 09:18:47;;;;;;;;;;;13.60;99.90;;;;;;5049630;28;20037;-91
2022/03/12 09:21:12;;;;;;;13.48;5.32;;;13.70;99.90;;;;;;5049126;28;19963;-74
2022/03/12 09:23:38;;;;;;;7.53;4.47;;;13.50;99.90;;;;;;5040266;28;20391;-74
2022/03/12 09:26:05;;;;;;;10.37;4.97;;;13.40;99.90;;;;;;5048918;28;20025;-74
2022/03/12 09:28:31;;;;;;;9.38;4.50;;;13.20;99.90;;;;;;5048296;28;20109;-74
2022/03/12 09:30:56;;;;;;;8.43;4.40;;;13.00;99.90;;;;;;5043231;28;20163;-74
2022/03/12 09:33:23;;;;;;;7.10;4.37;;;13.10;99.90;;;;;;5049711;28;20025;-74
2022/03/12 09:35:54;;;;;;;8.65;4.63;;;13.50;99.90;;;;;;5036683;28;20044;-74
2022/03/12 09:38:20;;;;;;;10.63;4.53;;;13.80;99.90;;;;;;5024840;28;20128;-74
2022/03/12 09:40:46;;;;;;;7.45;4.00;;;13.90;99.90;;;;;;5047370;28;20107;-75
2022/03/12 09:43:13;;;;;;;9.67;4.40;;;13.70;99.90;;;;;;5037661;28;20124;-85
2022/03/12 09:45:38;;;;;;;17.63;4.10;;;13.70;99.90;;;;;;5054335;28;20040;-75
2022/03/12 09:48:05;;;;;;;11.03;4.30;;;14.00;99.90;;;;;;5037505;28;20033;-74
2022/03/12 09:50:31;;;;;;;8.48;4.20;;;14.30;99.90;;;;;;5055753;28;20032;-74
2022/03/12 09:52:57;;;;;;;11.97;4.20;;;14.70;99.90;;;;;;5055789;28;20040;-74
2022/03/12 09:55:23;;;;;;;13.40;4.90;;;14.70;99.90;;;;;;5045378;28;20277;-74
2022/03/12 09:57:49;;;;;;;5.37;3.87;;;14.60;99.90;;;;;;5055467;28;20102;-74
2022/03/12 10:00:17;;;;;;;6.25;3.72;;;14.30;99.90;;;;;;5036319;28;20087;-84
2022/03/12 10:02:43;;;;;;;7.90;4.18;;;13.80;99.90;;;;;;5053545;28;20116;-75
2022/03/12 10:05:16;;;;;;;5.07;3.15;;;13.60;99.90;;;;;;5046070;28;20025;-74
2022/03/12 10:07:42;;;;;;;8.32;3.15;;;13.30;99.90;;;;;;5050746;28;20020;-74
2022/03/12 10:10:17;;;;;;;6.32;3.25;;;13.70;99.90;;;;;;5046869;28;20029;-74
2022/03/12 10:12:46;;;;;;;8.07;3.08;;;13.90;99.90;;;;;;5054611;28;20033;-86
2022/03/12 10:15:14;;;;;;;7.35;2.95;;;13.80;99.90;;;;;;5036853;28;20025;-75
2022/03/12 10:17:41;;;;;;;11.30;2.78;;;13.70;99.90;;;;;;5037393;28;20025;-74
2022/03/12 10:20:10;;;;;;;6.18;2.47;;;13.50;99.90;;;;;;5052633;28;20024;-84
2022/03/12 10:22:37;;;;;;;6.35;2.75;;;13.40;99.90;;;;;;5032492;28;20419;-76
2022/03/12 10:25:03;;;;;;;;;;;13.40;99.90;;;;;;5053512;28;20037;-74
2022/03/12 10:27:29;;;;;;;7.28;2.83;;;13.40;99.90;;;;;;5053531;28;19909;-74
2022/03/12 10:29:55;;;;;;;8.73;3.37;;;13.50;99.90;;;;;;5036320;28;20083;-74
2022/03/12 10:32:30;;;;;;;5.53;2.50;;;13.70;99.90;;;;;;5054457;28;20043;-74
2022/03/12 10:35:01;;;;;;;4.38;2.85;;;14.00;99.90;;;;;;5054322;28;20041;-75
2022/03/12 10:37:32;;;;;;;8.15;2.95;;;13.90;99.90;;;;;;5054073;28;20029;-74
2022/03/12 10:40:17;;;;;;;12.70;3.55;;;14.10;99.90;;;;;;5052242;28;20157;-74
2022/03/12 10:42:50;;;;;;;9.40;3.25;;;14.30;99.90;;;;;;5041554;28;20031;-74
2022/03/12 10:45:22;;;;;;;4.85;2.17;;;14.30;99.90;;;;;;5053066;28;20321;-74
2022/03/12 10:47:50;;;;;;;5.13;2.50;;;14.30;99.90;;;;;;5054327;28;20100;-74
2022/03/12 10:50:23;;;;;;;5.80;2.63;;;14.40;99.90;;;;;;5037856;28;20071;-74
2022/03/12 10:52:51;;;;;;;5.00;2.72;;;14.40;99.90;;;;;;5053362;28;20036;-74
2022/03/12 10:55:30;;;;;;;7.80;3.10;;;14.20;99.90;;;;;;5061940;28;20079;-84
2022/03/12 10:58:15;;;;;;;9.52;2.90;;;14.10;99.90;;;;;;5036415;28;20029;-74
2022/03/12 11:01:02;;;;;;;4.70;2.53;;;14.10;99.90;;;;;;5052845;28;20059;-87
2022/03/12 11:03:33;;;;;;;4.85;2.22;;;14.20;99.90;;;;;;5048866;28;20039;-74
2022/03/12 11:05:59;;;;;;;8.50;2.35;;;14.50;99.90;;;;;;5054007;28;20067;-82
2022/03/12 11:08:27;;;;;;;7.90;2.58;;;14.40;99.90;;;;;;5054435;28;20412;-74
2022/03/12 11:11:06;;;;;;;4.20;2.60;;;14.30;99.90;;;;;;5037134;28;20362;-74
2022/03/12 11:13:50;;;;;;;10.43;2.13;;;14.30;99.90;;;;;;5019490;28;20108;-75
2022/03/12 11:16:35;;;;;;;9.30;2.40;;;14.50;99.90;;;;;;5047037;28;20062;-75
2022/03/12 11:19:05;;;;;;;6.60;2.58;;;14.70;99.90;;;;;;5037385;28;20032;-74
2022/03/12 11:21:55;;;;;;;5.97;2.40;;;14.70;99.90;;;;;;5033035;28;20030;-74
2022/03/12 11:24:29;;;;;;;4.88;2.47;;;14.70;99.90;;;;;;5043903;28;20412;-74
2022/03/12 11:26:58;;;;;;;3.35;2.13;;;14.80;99.90;;;;;;5032263;28;20476;-74
2022/03/12 11:29:26;;;;;;;3.83;2.33;;;14.90;99.90;;;;;;5048267;28;20025;-74
2022/03/12 11:31:54;;;;;;;9.13;2.25;;;14.90;99.90;;;;;;5047838;28;20096;-75
2022/03/12 11:34:34;;;;;;;10.00;2.40;;;14.80;99.90;;;;;;5053076;28;20036;-74
2022/03/12 11:37:15;;;;;;;4.45;2.47;;;14.90;99.90;;;;;;5055444;28;20044;-75
2022/03/12 11:39:58;;;;;;;5.43;2.47;;;15.00;99.90;;;;;;5036668;28;20057;-75
2022/03/12 11:42:32;;;;;;;7.20;1.75;;;15.20;99.90;;;;;;5045490;28;20056;-75
2022/03/12 11:45:01;;;;;;;9.48;2.40;;;15.30;99.90;;;;;;5049381;28;20165;-74
2022/03/12 11:47:27;;;;;;;5.35;2.00;;;15.30;99.90;;;;;;5043101;28;20343;-75
2022/03/12 11:49:54;;;;;;;;;;;15.50;99.90;;;;;;5053006;28;20416;-84
2022/03/12 11:52:21;;;;;;;4.38;2.25;;;15.60;99.90;;;;;;5051214;28;20004;-74
2022/03/12 11:54:48;;;;;;;5.35;2.20;;;15.70;99.90;;;;;;5052027;28;20032;-75
2022/03/12 11:57:27;;;;;;;2.80;2.08;;;15.90;99.50;;;;;;5040526;28;20450;-88
2022/03/12 11:59:53;;;;;;;7.70;2.00;;;15.70;99.80;;;;;;5056868;28;20037;-75
2022/03/12 12:02:24;;;;;;;6.93;2.13;;;15.70;99.80;;;;;;5057303;28;20025;-74
2022/03/12 12:04:53;;;;;;;4.80;1.85;;;15.80;99.80;;;;;;5056593;28;20048;-75
2022/03/12 12:07:23;;;;;;;6.53;2.35;;;15.90;99.30;;;;;;5039262;28;20021;-75
2022/03/12 12:09:50;;;;;;;9.02;1.98;;;16.00;99.20;;;;;;5038817;28;20423;-74
2022/03/12 12:12:16;;;;;;;4.15;1.92;;;16.10;99.50;;;;;;5056894;28;20048;-75
2022/03/12 12:14:43;;;;;;;7.03;1.95;;;16.20;99.60;;;;;;5056491;28;20024;-75
2022/03/12 12:17:10;;;;;;;5.72;2.40;;;16.40;99.00;;;;;;5056237;28;20028;-75
2022/03/12 12:19:36;;;;;;;7.30;1.67;;;16.30;98.90;;;;;;5048990;28;20036;-81
2022/03/12 12:22:02;;;;;;;5.23;2.47;;;16.30;98.60;;;;;;5052117;28;20033;-75
2022/03/12 12:24:35;;;;;;;9.68;2.63;;;16.30;98.80;;;;;;5056557;28;20320;-74
2022/03/12 12:27:07;;;;;;;4.88;2.42;;;16.60;97.90;;;;;;5057426;28;20057;-75
2022/03/12 12:29:46;;;;;;;4.53;1.90;;;16.60;97.80;;;;;;5055605;28;20129;-75
2022/03/12 12:32:15;;;;;;;4.65;2.08;;;16.60;97.60;;;;;;5057371;28;20442;-75
2022/03/12 12:35:05;;;;;;;6.97;2.00;;;16.60;98.00;;;;;;5056910;28;20390;-76
2022/03/12 12:37:53;;;;;;;6.10;1.73;;;16.30;98.30;;;;;;5039237;28;20412;-74
2022/03/12 12:40:21;;;;;;;3.95;2.03;;;16.10;98.10;;;;;;5057239;28;20036;-75
2022/03/12 12:42:51;;;;;;;10.98;2.67;;;16.00;98.30;;;;;;5049329;28;20025;-75
2022/03/12 12:45:22;;;;;;;6.88;2.10;;;16.00;98.60;;;;;;5056981;28;20066;-77
2022/03/12 12:47:56;;;;;;;4.00;2.08;;;16.20;98.40;;;;;;5038983;28;20108;-75
2022/03/12 12:50:24;;;;;;;7.78;1.98;;;16.30;98.20;;;;;;5056677;28;20025;-75
2022/03/12 12:53:10;;;;;;;6.30;2.33;;;16.40;97.30;;;;;;5048784;28;20037;-75